Terminal Aerodrome Forecast
Issued by NWS Charleston, WV

Current Version | Previous Version | Graphics & Text | Print | Product List | Glossary On
Versions: 1 2 3 4 5 6 7 8 9 10 11 12 13 14 15 16 17 18 19 20 21 22 23 24 25
000
FTUS41 KRLX 250532
TAFBKW
TAF
KBKW 250532Z 2506/2606 22003KT 6SM BR BKN120
     FM250800 VRB03KT 4SM BR BKN003
     FM251200 VRB03KT 2SM BR BKN003
     FM251400 32003KT P6SM SCT020=

USA.gov is the U.S. government's official web portal to all federal, state and local government web resources and services.